createdAt,value
2018-11-12T00:01:37.428Z,34.47
2018-11-12T00:06:41.842Z,40.20
2018-11-12T00:11:46.277Z,38.90
2018-11-12T00:16:50.693Z,36.87
2018-11-12T00:21:55.179Z,32.97
2018-11-12T00:26:59.615Z,40.13
2018-11-12T00:32:04.072Z,38.27
2018-11-12T00:37:08.528Z,36.13
2018-11-12T00:42:12.948Z,40.33
2018-11-12T00:47:17.360Z,39.60
2018-11-12T00:52:21.773Z,33.77
2018-11-12T00:57:26.238Z,40.25
2018-11-12T01:02:30.662Z,34.23
2018-11-12T01:07:35.082Z,36.60
2018-11-12T01:12:39.541Z,35.93
2018-11-12T01:17:44.264Z,39.43
2018-11-12T01:22:48.813Z,36.80
2018-11-12T01:27:53.280Z,39.03
2018-11-12T01:32:57.732Z,38.43
2018-11-12T01:38:02.224Z,36.93
2018-11-12T01:43:06.663Z,36.70
2018-11-12T01:48:11.073Z,38.33
2018-11-12T01:53:15.489Z,36.50
2018-11-12T01:58:19.916Z,35.43
2018-11-12T02:03:24.329Z,34.63
2018-11-12T02:08:28.844Z,35.87
2018-11-12T02:13:33.270Z,32.70
2018-11-12T02:18:37.761Z,29.80
2018-11-12T02:23:43.188Z,35.27
2018-11-12T02:28:47.655Z,36.03
2018-11-12T02:33:52.104Z,36.63
2018-11-12T02:38:56.560Z,36.80
2018-11-12T02:44:00.984Z,33.63
2018-11-12T02:49:05.446Z,39.30
2018-11-12T02:54:09.896Z,37.87
2018-11-12T02:59:14.304Z,34.33
2018-11-12T03:04:18.731Z,36.70
2018-11-12T03:09:23.152Z,38.33
2018-11-12T03:14:27.571Z,37.67
2018-11-12T03:19:32.025Z,31.67
2018-11-12T03:24:36.456Z,30.13
2018-11-12T03:29:40.928Z,35.63
2018-11-12T03:34:45.352Z,31.87
2018-11-12T03:39:49.864Z,31.53
2018-11-12T03:44:54.448Z,29.40
2018-11-12T03:49:58.869Z,25.93
2018-11-12T03:55:03.369Z,28.77
2018-11-12T04:00:21.386Z,29.77
2018-11-12T04:05:26.031Z,27.93
2018-11-12T04:10:30.463Z,33.87
2018-11-12T04:15:35.212Z,30.45
2018-11-12T04:20:39.644Z,30.93
2018-11-12T04:25:44.063Z,32.78
2018-11-12T04:30:48.523Z,30.97
2018-11-12T04:35:52.948Z,29.67
2018-11-12T04:40:57.476Z,32.07
2018-11-12T04:46:01.889Z,30.33
2018-11-12T04:51:06.478Z,35.90
2018-11-12T04:56:10.973Z,31.73
2018-11-12T05:01:15.404Z,31.17
2018-11-12T05:06:19.824Z,30.60
2018-11-12T05:11:24.254Z,31.77
2018-11-12T05:16:28.693Z,26.67
2018-11-12T05:21:33.177Z,26.37
2018-11-12T05:26:37.591Z,27.97
2018-11-12T05:31:42.140Z,31.73
2018-11-12T05:36:46.598Z,31.50
2018-11-12T05:41:52.036Z,29.70
2018-11-12T05:46:56.448Z,30.47
2018-11-12T05:52:02.181Z,32.53
2018-11-12T05:57:06.636Z,26.27
2018-11-12T06:02:11.057Z,30.23
2018-11-12T06:07:15.789Z,31.73
2018-11-12T06:12:20.276Z,32.67
2018-11-12T06:17:24.866Z,28.17
2018-11-12T06:22:29.293Z,28.40
2018-11-12T06:27:33.796Z,30.37
2018-11-12T06:32:38.352Z,28.27
2018-11-12T06:37:43.322Z,28.07
2018-11-12T06:42:47.876Z,30.97
2018-11-12T06:47:53.016Z,31.57
2018-11-12T06:52:57.648Z,28.87
2018-11-12T06:58:02.008Z,29.90
2018-11-12T07:03:06.476Z,28.40
2018-11-12T07:08:10.897Z,33.83
2018-11-12T07:13:15.353Z,31.47
2018-11-12T07:18:19.801Z,28.80
2018-11-12T07:23:24.268Z,38.40
2018-11-12T07:28:28.784Z,29.53
2018-11-12T07:33:33.209Z,33.53
2018-11-12T07:38:37.679Z,30.40
2018-11-12T07:43:42.153Z,24.20
2018-11-12T07:48:46.606Z,29.37
2018-11-12T07:53:51.052Z,35.90
2018-11-12T07:58:55.504Z,30.60
2018-11-12T08:03:59.932Z,27.13
2018-11-12T08:09:05.317Z,31.90
2018-11-12T08:14:09.685Z,34.47
2018-11-12T08:19:14.120Z,33.97
2018-11-12T08:24:18.684Z,27.52
2018-11-12T08:29:23.078Z,29.00
2018-11-12T08:34:27.557Z,30.40
2018-11-12T08:39:32.138Z,27.70
2018-11-12T08:44:36.504Z,27.37
2018-11-12T08:49:41.111Z,27.93
2018-11-12T08:54:45.916Z,25.73
2018-11-12T08:59:50.484Z,29.47
2018-11-12T09:04:54.885Z,28.63
2018-11-12T09:09:59.435Z,26.87
2018-11-12T09:15:03.951Z,30.47
2018-11-12T09:20:10.101Z,28.33
2018-11-12T09:25:16.918Z,26.70
2018-11-12T09:30:23.554Z,24.27
2018-11-12T09:35:29.169Z,26.53
2018-11-12T09:40:37.667Z,24.77
2018-11-12T09:45:42.132Z,25.90
2018-11-12T09:50:46.548Z,24.93
2018-11-12T09:55:50.956Z,26.53
2018-11-12T10:00:55.832Z,25.17
2018-11-12T10:06:02.154Z,21.37
2018-11-12T10:11:08.873Z,26.37
2018-11-12T10:16:13.906Z,26.77
2018-11-12T10:21:15.332Z,21.73
2018-11-12T10:26:19.785Z,22.37
2018-11-12T10:31:24.202Z,25.60
2018-11-12T10:36:28.617Z,21.40
2018-11-12T10:41:33.037Z,21.83
2018-11-12T10:46:37.458Z,22.93
2018-11-12T10:51:41.864Z,19.63
2018-11-12T10:56:46.289Z,21.23
2018-11-12T11:01:53.767Z,20.68
2018-11-12T11:06:58.257Z,24.93
2018-11-12T11:12:02.664Z,23.53
2018-11-12T11:17:07.099Z,19.40
2018-11-12T11:22:11.521Z,60.87
2018-11-12T11:27:15.946Z,26.33
2018-11-12T11:42:00.857Z,27.83
2018-11-12T11:47:06.689Z,39.40
2018-11-12T11:52:11.088Z,24.00
2018-11-12T11:57:15.532Z,21.97
2018-11-12T12:02:20.038Z,20.70
2018-11-12T12:07:24.445Z,21.50
2018-11-12T12:12:28.873Z,19.47
2018-11-12T12:17:33.353Z,29.30
2018-11-12T12:22:38.812Z,21.43
2018-11-12T12:27:43.711Z,23.97
2018-11-12T12:32:49.483Z,23.53
2018-11-12T12:37:54.260Z,19.77
2018-11-12T12:42:58.757Z,21.10
2018-11-12T12:48:03.201Z,21.40
2018-11-12T12:53:07.669Z,18.30
2018-11-12T12:58:12.215Z,20.50
2018-11-12T13:03:16.646Z,20.37
2018-11-12T13:08:21.049Z,17.57
2018-11-12T13:13:25.473Z,18.73
2018-11-12T13:18:29.896Z,22.33
2018-11-12T13:23:34.317Z,16.67
2018-11-12T13:28:38.777Z,18.40
2018-11-12T13:33:43.216Z,19.63
2018-11-12T13:38:47.616Z,15.33
2018-11-12T13:43:52.045Z,14.47
2018-11-12T13:48:56.568Z,20.43
2018-11-12T13:54:00.992Z,20.00
2018-11-12T13:59:05.798Z,21.27
2018-11-12T14:04:10.236Z,23.93
2018-11-12T14:09:14.648Z,20.60
2018-11-12T14:14:19.145Z,19.53
2018-11-12T14:19:23.572Z,17.53
2018-11-12T14:24:27.976Z,17.57
2018-11-12T14:29:32.423Z,20.50
2018-11-12T14:34:36.985Z,18.73
2018-11-12T14:39:41.733Z,22.50
2018-11-12T14:44:46.084Z,22.33
2018-11-12T14:49:50.538Z,24.80
2018-11-12T14:54:55.133Z,20.57
2018-11-12T14:59:59.804Z,18.53
2018-11-12T15:05:04.292Z,22.13
2018-11-12T15:10:10.476Z,21.53
2018-11-12T15:15:15.175Z,21.93
2018-11-12T15:20:20.548Z,23.47
2018-11-12T15:25:26.088Z,22.07
2018-11-12T15:30:30.510Z,24.50
2018-11-12T15:35:35.008Z,25.30
2018-11-12T15:40:39.417Z,24.13
2018-11-12T15:45:46.470Z,29.73
2018-11-12T15:50:49.440Z,25.77
2018-11-12T15:55:53.839Z,29.83
2018-11-12T16:00:58.269Z,29.40
2018-11-12T16:06:02.745Z,32.77
2018-11-12T16:11:07.161Z,29.87
2018-11-12T16:16:11.657Z,32.80
2018-11-12T16:21:16.173Z,27.50
2018-11-12T16:26:20.645Z,28.17
2018-11-12T16:31:25.288Z,31.90
2018-11-12T16:36:29.821Z,26.50
2018-11-12T16:41:41.377Z,27.80
2018-11-12T16:46:46.571Z,31.60
2018-11-12T16:51:51.089Z,28.73
2018-11-12T16:56:55.694Z,27.30
2018-11-12T17:02:00.208Z,24.73
2018-11-12T17:07:04.753Z,28.47
2018-11-12T17:12:09.397Z,26.67
2018-11-12T17:17:14.009Z,30.00
2018-11-12T17:22:18.563Z,27.87
2018-11-12T17:27:23.084Z,27.23
2018-11-12T17:32:27.620Z,24.53
2018-11-12T17:37:32.117Z,26.17
2018-11-12T17:42:36.601Z,27.13
2018-11-12T17:47:41.112Z,26.10
2018-11-12T17:52:45.551Z,23.83
2018-11-12T17:57:50.117Z,26.70
2018-11-12T18:02:54.680Z,26.02
2018-11-12T18:07:59.198Z,29.03
2018-11-12T18:13:03.728Z,26.60
2018-11-12T18:18:08.273Z,26.63
2018-11-12T18:23:12.737Z,28.55
2018-11-12T18:28:17.193Z,28.23
2018-11-12T18:33:21.646Z,28.30
2018-11-12T18:38:26.077Z,31.73
2018-11-12T18:43:30.517Z,30.17
2018-11-12T18:48:34.966Z,32.57
2018-11-12T18:53:39.396Z,31.80
2018-11-12T18:58:43.836Z,26.37
2018-11-12T19:03:48.352Z,28.00
2018-11-12T19:08:52.826Z,29.17
2018-11-12T19:13:57.352Z,29.60
2018-11-12T19:19:01.954Z,29.77
2018-11-12T19:24:06.488Z,34.33
2018-11-12T19:29:10.940Z,40.37
2018-11-12T19:34:15.379Z,34.13
2018-11-12T19:39:21.045Z,33.57
2018-11-12T19:44:25.485Z,31.27
2018-11-12T19:49:29.900Z,33.02
2018-11-12T19:54:34.380Z,31.43
2018-11-12T19:59:38.792Z,38.42
2018-11-12T20:04:43.212Z,34.27
2018-11-12T20:09:47.616Z,32.43
2018-11-12T20:14:52.034Z,36.50
2018-11-12T20:19:56.484Z,34.90
2018-11-12T20:25:00.939Z,37.88
2018-11-12T20:30:07.109Z,36.43
2018-11-12T20:35:11.564Z,31.47
2018-11-12T20:40:16.664Z,30.10
2018-11-12T20:45:22.413Z,37.07
2018-11-12T20:50:26.957Z,38.00
2018-11-12T20:55:31.487Z,35.93
2018-11-12T21:00:35.920Z,39.47
2018-11-12T21:05:40.442Z,35.23
2018-11-12T21:10:44.904Z,35.53
2018-11-12T21:15:49.441Z,35.83
2018-11-12T21:20:54.920Z,34.97
2018-11-12T21:25:59.346Z,33.07
2018-11-12T21:31:03.812Z,32.77
2018-11-12T21:36:08.276Z,35.60
2018-11-12T21:41:12.760Z,34.70
2018-11-12T21:46:17.288Z,39.47
2018-11-12T21:51:21.833Z,36.10
2018-11-12T21:56:26.360Z,32.63
2018-11-12T22:01:31.603Z,34.00
2018-11-12T22:06:37.060Z,34.57
2018-11-12T22:11:41.581Z,33.27
2018-11-12T22:16:45.997Z,33.50
2018-11-12T22:31:27.115Z,31.87
2018-11-12T22:36:31.521Z,29.10
2018-11-12T22:41:35.933Z,33.63
2018-11-12T22:46:40.377Z,32.27
2018-11-12T22:51:44.809Z,31.30
2018-11-12T22:56:49.219Z,27.67
2018-11-12T23:01:53.664Z,25.27
2018-11-12T23:06:58.069Z,28.13
2018-11-12T23:12:02.492Z,25.17
2018-11-12T23:17:07.233Z,29.67
2018-11-12T23:22:11.753Z,25.13
2018-11-12T23:27:16.171Z,26.47
2018-11-12T23:32:20.649Z,24.50
2018-11-12T23:37:25.053Z,30.07
2018-11-12T23:42:29.464Z,25.47
2018-11-12T23:47:33.964Z,29.07
2018-11-12T23:52:38.604Z,24.77
2018-11-12T23:57:43.349Z,28.77
